sensor_id;sensor_type;location;lat;lon;timestamp;pressure;altitude;pressure_sealevel;temperature;humidity
76603;BME280;65075;48.390;17.598;2024-01-25T00:00:01;100087.25;;;11.53;47.36
76603;BME280;65075;48.390;17.598;2024-01-25T00:02:29;100092.84;;;11.31;47.76
76603;BME280;65075;48.390;17.598;2024-01-25T00:04:55;100059.19;;;11.21;47.91
76603;BME280;65075;48.390;17.598;2024-01-25T00:07:20;100025.94;;;11.34;47.74
76603;BME280;65075;48.390;17.598;2024-01-25T00:09:46;100089.56;;;11.29;47.78
76603;BME280;65075;48.390;17.598;2024-01-25T00:12:12;100076.25;;;11.38;47.50
76603;BME280;65075;48.390;17.598;2024-01-25T00:14:37;100076.41;;;10.89;49.00
76603;BME280;65075;48.390;17.598;2024-01-25T00:17:03;100080.75;;;11.22;47.99
76603;BME280;65075;48.390;17.598;2024-01-25T00:19:28;100081.56;;;11.18;47.78
76603;BME280;65075;48.390;17.598;2024-01-25T00:21:54;100081.19;;;11.41;47.04
76603;BME280;65075;48.390;17.598;2024-01-25T00:24:19;100098.63;;;11.35;47.43
76603;BME280;65075;48.390;17.598;2024-01-25T00:26:45;100079.75;;;11.33;47.28
76603;BME280;65075;48.390;17.598;2024-01-25T00:29:10;100075.06;;;10.65;48.10
76603;BME280;65075;48.390;17.598;2024-01-25T00:31:36;100072.25;;;11.19;46.97
76603;BME280;65075;48.390;17.598;2024-01-25T00:34:02;100064.78;;;11.41;46.33
76603;BME280;65075;48.390;17.598;2024-01-25T00:36:28;100069.63;;;10.97;47.80
76603;BME280;65075;48.390;17.598;2024-01-25T00:38:53;100079.41;;;11.25;46.93
76603;BME280;65075;48.390;17.598;2024-01-25T00:41:19;100038.41;;;10.88;47.17
76603;BME280;65075;48.390;17.598;2024-01-25T00:43:45;100049.56;;;10.81;48.01
76603;BME280;65075;48.390;17.598;2024-01-25T00:46:12;100048.00;;;11.27;47.04
76603;BME280;65075;48.390;17.598;2024-01-25T00:48:40;100041.59;;;11.07;47.24
76603;BME280;65075;48.390;17.598;2024-01-25T00:51:14;100040.38;;;10.93;47.47
76603;BME280;65075;48.390;17.598;2024-01-25T00:53:41;100031.50;;;11.07;47.34
76603;BME280;65075;48.390;17.598;2024-01-25T00:56:07;100027.41;;;11.10;47.08
76603;BME280;65075;48.390;17.598;2024-01-25T00:58:33;100025.41;;;11.00;47.51
76603;BME280;65075;48.390;17.598;2024-01-25T01:00:59;100015.06;;;10.70;48.12
76603;BME280;65075;48.390;17.598;2024-01-25T01:03:25;100022.41;;;11.02;47.38
76603;BME280;65075;48.390;17.598;2024-01-25T01:05:51;100034.28;;;11.59;46.28
76603;BME280;65075;48.390;17.598;2024-01-25T01:08:16;100043.31;;;11.18;47.26
76603;BME280;65075;48.390;17.598;2024-01-25T01:10:42;100020.09;;;10.83;48.71
76603;BME280;65075;48.390;17.598;2024-01-25T01:13:08;100043.50;;;11.06;47.66
76603;BME280;65075;48.390;17.598;2024-01-25T01:15:33;100030.16;;;11.10;47.64
76603;BME280;65075;48.390;17.598;2024-01-25T01:17:59;100061.25;;;11.09;47.20
76603;BME280;65075;48.390;17.598;2024-01-25T01:20:24;100007.69;;;11.03;47.16
76603;BME280;65075;48.390;17.598;2024-01-25T01:22:52;100035.25;;;11.33;46.75
76603;BME280;65075;48.390;17.598;2024-01-25T01:25:17;100016.19;;;11.48;47.04
76603;BME280;65075;48.390;17.598;2024-01-25T01:27:43;100028.56;;;11.19;47.99
76603;BME280;65075;48.390;17.598;2024-01-25T01:30:09;100044.34;;;11.12;47.57
76603;BME280;65075;48.390;17.598;2024-01-25T01:32:35;100032.44;;;11.28;47.18
76603;BME280;65075;48.390;17.598;2024-01-25T01:35:00;100040.91;;;10.89;48.31
76603;BME280;65075;48.390;17.598;2024-01-25T01:37:27;100042.78;;;11.21;47.95
76603;BME280;65075;48.390;17.598;2024-01-25T01:39:53;100059.72;;;11.23;48.95
76603;BME280;65075;48.390;17.598;2024-01-25T01:42:21;100062.28;;;11.34;48.32
76603;BME280;65075;48.390;17.598;2024-01-25T01:44:47;100042.94;;;11.04;49.09
76603;BME280;65075;48.390;17.598;2024-01-25T01:47:13;100046.44;;;11.00;49.04
76603;BME280;65075;48.390;17.598;2024-01-25T01:49:39;100055.44;;;11.32;49.22
76603;BME280;65075;48.390;17.598;2024-01-25T01:52:05;100047.13;;;11.17;49.50
76603;BME280;65075;48.390;17.598;2024-01-25T01:54:31;100037.88;;;11.23;49.43
76603;BME280;65075;48.390;17.598;2024-01-25T01:56:56;100055.28;;;11.12;49.72
76603;BME280;65075;48.390;17.598;2024-01-25T01:59:22;100034.81;;;10.82;50.28
76603;BME280;65075;48.390;17.598;2024-01-25T02:01:51;100031.69;;;10.69;50.29
76603;BME280;65075;48.390;17.598;2024-01-25T02:04:17;100040.75;;;10.74;50.17
76603;BME280;65075;48.390;17.598;2024-01-25T02:06:42;100034.97;;;10.98;50.39
76603;BME280;65075;48.390;17.598;2024-01-25T02:09:09;100037.19;;;11.01;50.02
76603;BME280;65075;48.390;17.598;2024-01-25T02:11:35;100025.94;;;10.97;50.12
76603;BME280;65075;48.390;17.598;2024-01-25T02:14:00;100034.56;;;11.16;49.98
76603;BME280;65075;48.390;17.598;2024-01-25T02:16:26;100011.97;;;10.93;49.86
76603;BME280;65075;48.390;17.598;2024-01-25T02:18:51;99992.63;;;10.63;50.36
76603;BME280;65075;48.390;17.598;2024-01-25T02:21:19;100043.19;;;11.03;50.32
76603;BME280;65075;48.390;17.598;2024-01-25T02:23:45;100047.19;;;10.90;50.39
76603;BME280;65075;48.390;17.598;2024-01-25T02:26:10;100043.16;;;10.98;50.75
76603;BME280;65075;48.390;17.598;2024-01-25T02:28:36;100047.56;;;11.04;50.20
76603;BME280;65075;48.390;17.598;2024-01-25T02:31:02;100028.19;;;10.73;49.84
76603;BME280;65075;48.390;17.598;2024-01-25T02:33:28;100031.03;;;10.83;48.97
76603;BME280;65075;48.390;17.598;2024-01-25T02:35:54;100045.75;;;10.82;49.05
76603;BME280;65075;48.390;17.598;2024-01-25T02:38:19;100046.91;;;10.91;48.27
76603;BME280;65075;48.390;17.598;2024-01-25T02:40:45;100044.19;;;10.91;48.07
76603;BME280;65075;48.390;17.598;2024-01-25T02:43:10;100036.88;;;10.97;47.44
76603;BME280;65075;48.390;17.598;2024-01-25T02:45:36;100037.75;;;11.08;46.73
76603;BME280;65075;48.390;17.598;2024-01-25T02:48:01;100021.84;;;10.95;47.14
76603;BME280;65075;48.390;17.598;2024-01-25T02:50:29;100039.94;;;11.06;46.76
76603;BME280;65075;48.390;17.598;2024-01-25T02:52:55;100022.38;;;10.65;48.36
76603;BME280;65075;48.390;17.598;2024-01-25T02:55:21;100021.84;;;10.68;48.28
76603;BME280;65075;48.390;17.598;2024-01-25T02:57:46;100040.25;;;10.77;48.06
76603;BME280;65075;48.390;17.598;2024-01-25T03:00:12;100041.78;;;10.68;47.81
76603;BME280;65075;48.390;17.598;2024-01-25T03:02:38;100041.53;;;10.70;48.55
76603;BME280;65075;48.390;17.598;2024-01-25T03:05:04;100038.03;;;10.74;48.47
76603;BME280;65075;48.390;17.598;2024-01-25T03:07:29;100058.78;;;10.75;48.92
76603;BME280;65075;48.390;17.598;2024-01-25T03:09:55;100048.00;;;10.90;48.62
76603;BME280;65075;48.390;17.598;2024-01-25T03:12:20;100056.25;;;10.96;48.78
76603;BME280;65075;48.390;17.598;2024-01-25T03:14:46;100056.47;;;10.62;50.21
76603;BME280;65075;48.390;17.598;2024-01-25T03:17:11;100059.03;;;10.74;49.56
76603;BME280;65075;48.390;17.598;2024-01-25T03:19:38;100070.16;;;10.94;48.74
76603;BME280;65075;48.390;17.598;2024-01-25T03:22:03;100064.66;;;11.21;48.21
76603;BME280;65075;48.390;17.598;2024-01-25T03:24:29;100062.66;;;11.11;48.63
76603;BME280;65075;48.390;17.598;2024-01-25T03:26:54;100070.81;;;11.06;49.07
76603;BME280;65075;48.390;17.598;2024-01-25T03:29:20;100061.63;;;10.90;49.14
76603;BME280;65075;48.390;17.598;2024-01-25T03:31:45;100051.81;;;10.89;49.35
76603;BME280;65075;48.390;17.598;2024-01-25T03:34:11;100033.28;;;10.65;49.96
76603;BME280;65075;48.390;17.598;2024-01-25T03:36:38;100063.97;;;10.77;49.55
76603;BME280;65075;48.390;17.598;2024-01-25T03:39:05;100068.06;;;10.74;49.73
76603;BME280;65075;48.390;17.598;2024-01-25T03:41:31;100067.50;;;10.72;49.65
76603;BME280;65075;48.390;17.598;2024-01-25T03:43:56;100061.44;;;10.70;48.95
76603;BME280;65075;48.390;17.598;2024-01-25T03:46:22;100062.56;;;11.33;47.89
76603;BME280;65075;48.390;17.598;2024-01-25T03:48:47;100060.22;;;10.83;48.92
76603;BME280;65075;48.390;17.598;2024-01-25T03:51:13;100049.09;;;10.63;49.72
76603;BME280;65075;48.390;17.598;2024-01-25T03:53:38;100063.97;;;10.50;49.66
76603;BME280;65075;48.390;17.598;2024-01-25T03:56:11;100086.94;;;10.54;49.41
76603;BME280;65075;48.390;17.598;2024-01-25T03:58:37;100070.16;;;10.67;49.12
76603;BME280;65075;48.390;17.598;2024-01-25T04:01:03;100081.44;;;10.76;48.84
76603;BME280;65075;48.390;17.598;2024-01-25T04:03:28;100069.44;;;10.50;49.32
76603;BME280;65075;48.390;17.598;2024-01-25T04:05:54;100084.25;;;10.59;48.82
76603;BME280;65075;48.390;17.598;2024-01-25T04:08:19;100081.13;;;11.36;48.43
76603;BME280;65075;48.390;17.598;2024-01-25T04:10:45;100087.16;;;10.74;49.88
76603;BME280;65075;48.390;17.598;2024-01-25T04:13:10;100080.94;;;10.52;50.15
76603;BME280;65075;48.390;17.598;2024-01-25T04:15:36;100097.38;;;11.16;49.51
76603;BME280;65075;48.390;17.598;2024-01-25T04:18:01;100102.25;;;10.55;51.47
76603;BME280;65075;48.390;17.598;2024-01-25T04:20:27;100099.72;;;10.75;50.74
76603;BME280;65075;48.390;17.598;2024-01-25T04:22:53;100096.88;;;10.65;50.95
76603;BME280;65075;48.390;17.598;2024-01-25T04:25:18;100077.41;;;10.30;51.17
76603;BME280;65075;48.390;17.598;2024-01-25T04:27:44;100103.94;;;10.88;51.24
76603;BME280;65075;48.390;17.598;2024-01-25T04:30:09;100102.84;;;10.36;52.15
76603;BME280;65075;48.390;17.598;2024-01-25T04:32:35;100079.41;;;10.40;51.43
76603;BME280;65075;48.390;17.598;2024-01-25T04:35:01;100102.34;;;10.65;51.38
76603;BME280;65075;48.390;17.598;2024-01-25T04:37:28;100106.44;;;10.89;50.99
76603;BME280;65075;48.390;17.598;2024-01-25T04:39:53;100096.72;;;11.04;50.96
76603;BME280;65075;48.390;17.598;2024-01-25T04:42:19;100064.50;;;10.47;51.40
76603;BME280;65075;48.390;17.598;2024-01-25T04:44:44;100097.94;;;11.18;50.39
76603;BME280;65075;48.390;17.598;2024-01-25T04:47:10;100108.47;;;10.77;51.06
76603;BME280;65075;48.390;17.598;2024-01-25T04:49:36;100096.41;;;10.73;51.54
76603;BME280;65075;48.390;17.598;2024-01-25T04:52:02;100105.22;;;10.80;51.03
76603;BME280;65075;48.390;17.598;2024-01-25T04:54:28;100077.28;;;10.20;52.08
76603;BME280;65075;48.390;17.598;2024-01-25T04:56:53;100108.41;;;10.46;51.55
76603;BME280;65075;48.390;17.598;2024-01-25T04:59:20;100116.97;;;10.81;50.70
76603;BME280;65075;48.390;17.598;2024-01-25T05:01:46;100108.75;;;10.11;52.11
76603;BME280;65075;48.390;17.598;2024-01-25T05:04:12;100108.06;;;10.64;51.28
76603;BME280;65075;48.390;17.598;2024-01-25T05:06:37;100116.16;;;10.80;50.44
76603;BME280;65075;48.390;17.598;2024-01-25T05:09:03;100119.81;;;10.64;50.77
76603;BME280;65075;48.390;17.598;2024-01-25T05:11:28;100117.09;;;10.64;50.44
76603;BME280;65075;48.390;17.598;2024-01-25T05:13:54;100136.19;;;10.64;50.90
76603;BME280;65075;48.390;17.598;2024-01-25T05:16:20;100132.56;;;10.85;50.07
76603;BME280;65075;48.390;17.598;2024-01-25T05:18:45;100163.63;;;10.79;50.33
76603;BME280;65075;48.390;17.598;2024-01-25T05:21:11;100142.34;;;10.55;51.02
76603;BME280;65075;48.390;17.598;2024-01-25T05:23:36;100158.50;;;11.10;49.20
76603;BME280;65075;48.390;17.598;2024-01-25T05:26:02;100136.81;;;10.28;50.55
76603;BME280;65075;48.390;17.598;2024-01-25T05:28:28;100146.28;;;10.20;51.10
76603;BME280;65075;48.390;17.598;2024-01-25T05:30:53;100155.84;;;10.66;50.72
76603;BME280;65075;48.390;17.598;2024-01-25T05:33:19;100171.84;;;10.58;51.10
76603;BME280;65075;48.390;17.598;2024-01-25T05:35:44;100163.59;;;10.31;51.27
76603;BME280;65075;48.390;17.598;2024-01-25T05:38:10;100141.97;;;10.08;50.86
76603;BME280;65075;48.390;17.598;2024-01-25T05:40:35;100168.34;;;10.41;50.92
76603;BME280;65075;48.390;17.598;2024-01-25T05:43:01;100174.66;;;10.41;50.36
76603;BME280;65075;48.390;17.598;2024-01-25T05:45:26;100169.69;;;10.60;50.42
76603;BME280;65075;48.390;17.598;2024-01-25T05:47:52;100163.22;;;10.44;50.44
76603;BME280;65075;48.390;17.598;2024-01-25T05:50:18;100169.31;;;10.51;50.49
76603;BME280;65075;48.390;17.598;2024-01-25T05:52:43;100166.19;;;10.43;50.27
76603;BME280;65075;48.390;17.598;2024-01-25T05:55:09;100162.81;;;10.57;50.20
76603;BME280;65075;48.390;17.598;2024-01-25T05:57:36;100154.66;;;10.36;49.95
76603;BME280;65075;48.390;17.598;2024-01-25T06:00:03;100168.97;;;10.48;49.86
76603;BME280;65075;48.390;17.598;2024-01-25T06:02:30;100154.44;;;10.42;49.88
76603;BME280;65075;48.390;17.598;2024-01-25T06:04:56;100169.31;;;10.51;49.71
76603;BME280;65075;48.390;17.598;2024-01-25T06:07:24;100154.53;;;10.47;49.75
76603;BME280;65075;48.390;17.598;2024-01-25T06:09:51;100156.03;;;10.16;49.55
76603;BME280;65075;48.390;17.598;2024-01-25T06:12:19;100138.72;;;10.49;48.91
76603;BME280;65075;48.390;17.598;2024-01-25T06:14:45;100153.91;;;10.18;49.51
76603;BME280;65075;48.390;17.598;2024-01-25T06:17:14;100147.88;;;10.38;48.89
76603;BME280;65075;48.390;17.598;2024-01-25T06:19:40;100157.69;;;10.17;49.49
76603;BME280;65075;48.390;17.598;2024-01-25T06:22:08;100156.13;;;10.43;49.27
76603;BME280;65075;48.390;17.598;2024-01-25T06:24:35;100152.72;;;10.36;48.63
76603;BME280;65075;48.390;17.598;2024-01-25T06:27:02;100158.00;;;10.64;48.19
76603;BME280;65075;48.390;17.598;2024-01-25T06:29:29;100157.38;;;10.36;48.18
76603;BME280;65075;48.390;17.598;2024-01-25T06:31:56;100151.81;;;10.74;47.01
76603;BME280;65075;48.390;17.598;2024-01-25T06:34:23;100168.47;;;10.51;48.03
76603;BME280;65075;48.390;17.598;2024-01-25T06:36:50;100175.81;;;10.50;47.53
76603;BME280;65075;48.390;17.598;2024-01-25T06:39:16;100165.81;;;10.56;47.64
76603;BME280;65075;48.390;17.598;2024-01-25T06:41:43;100181.72;;;10.42;48.59
76603;BME280;65075;48.390;17.598;2024-01-25T06:44:10;100199.31;;;10.73;47.82
76603;BME280;65075;48.390;17.598;2024-01-25T06:46:37;100208.00;;;10.91;48.68
76603;BME280;65075;48.390;17.598;2024-01-25T06:49:04;100216.00;;;10.55;49.09
76603;BME280;65075;48.390;17.598;2024-01-25T06:51:31;100204.59;;;10.19;49.09
76603;BME280;65075;48.390;17.598;2024-01-25T06:53:59;100203.44;;;10.32;50.11
76603;BME280;65075;48.390;17.598;2024-01-25T06:56:26;100195.38;;;11.12;48.40
76603;BME280;65075;48.390;17.598;2024-01-25T06:58:51;100182.88;;;10.46;49.33
76603;BME280;65075;48.390;17.598;2024-01-25T07:01:23;100165.06;;;10.39;49.60
76603;BME280;65075;48.390;17.598;2024-01-25T07:03:50;100174.38;;;10.21;50.39
76603;BME280;65075;48.390;17.598;2024-01-25T07:06:18;100166.94;;;11.08;48.07
76603;BME280;65075;48.390;17.598;2024-01-25T07:08:46;100178.06;;;11.02;47.85
76603;BME280;65075;48.390;17.598;2024-01-25T07:11:16;100167.22;;;10.58;49.49
76603;BME280;65075;48.390;17.598;2024-01-25T07:13:43;100170.44;;;10.77;48.91
76603;BME280;65075;48.390;17.598;2024-01-25T07:16:10;100168.97;;;10.69;49.05
76603;BME280;65075;48.390;17.598;2024-01-25T07:18:35;100167.09;;;10.97;48.49
76603;BME280;65075;48.390;17.598;2024-01-25T07:21:02;100159.56;;;11.09;48.12
76603;BME280;65075;48.390;17.598;2024-01-25T07:23:30;100137.22;;;10.58;48.65
76603;BME280;65075;48.390;17.598;2024-01-25T07:25:57;100147.28;;;11.38;46.58
76603;BME280;65075;48.390;17.598;2024-01-25T07:28:24;100154.38;;;11.07;47.97
76603;BME280;65075;48.390;17.598;2024-01-25T07:30:51;100136.38;;;10.84;48.47
76603;BME280;65075;48.390;17.598;2024-01-25T07:33:17;100106.91;;;11.50;47.07
76603;BME280;65075;48.390;17.598;2024-01-25T07:35:44;100155.97;;;11.30;47.86
76603;BME280;65075;48.390;17.598;2024-01-25T07:38:15;100143.19;;;11.09;48.00
76603;BME280;65075;48.390;17.598;2024-01-25T07:40:41;100151.50;;;10.92;48.49
76603;BME280;65075;48.390;17.598;2024-01-25T07:43:08;100141.84;;;10.58;48.21
76603;BME280;65075;48.390;17.598;2024-01-25T07:45:35;100166.38;;;10.36;49.50
76603;BME280;65075;48.390;17.598;2024-01-25T07:48:01;100169.13;;;10.84;48.48
76603;BME280;65075;48.390;17.598;2024-01-25T07:50:29;100175.13;;;10.81;48.43
76603;BME280;65075;48.390;17.598;2024-01-25T07:52:56;100163.84;;;10.51;48.52
76603;BME280;65075;48.390;17.598;2024-01-25T07:55:22;100192.75;;;10.96;47.47
76603;BME280;65075;48.390;17.598;2024-01-25T07:57:49;100179.16;;;11.01;47.49
76603;BME280;65075;48.390;17.598;2024-01-25T08:00:14;100183.00;;;11.05;47.17
76603;BME280;65075;48.390;17.598;2024-01-25T08:02:40;100178.88;;;10.75;46.52
76603;BME280;65075;48.390;17.598;2024-01-25T08:05:07;100191.66;;;10.97;46.61
76603;BME280;65075;48.390;17.598;2024-01-25T08:07:32;100179.19;;;10.57;47.17
76603;BME280;65075;48.390;17.598;2024-01-25T08:09:59;100196.13;;;11.08;46.46
76603;BME280;65075;48.390;17.598;2024-01-25T08:12:25;100163.31;;;11.03;46.62
76603;BME280;65075;48.390;17.598;2024-01-25T08:14:50;100184.97;;;10.61;47.25
76603;BME280;65075;48.390;17.598;2024-01-25T08:17:16;100199.09;;;10.79;46.65
76603;BME280;65075;48.390;17.598;2024-01-25T08:19:42;100213.22;;;10.71;46.60
76603;BME280;65075;48.390;17.598;2024-01-25T08:22:07;100205.47;;;10.63;46.76
76603;BME280;65075;48.390;17.598;2024-01-25T08:24:33;100185.94;;;11.25;45.69
76603;BME280;65075;48.390;17.598;2024-01-25T08:26:58;100185.63;;;10.95;46.42
76603;BME280;65075;48.390;17.598;2024-01-25T08:29:25;100177.34;;;10.19;47.97
76603;BME280;65075;48.390;17.598;2024-01-25T08:31:51;100178.09;;;10.80;45.97
76603;BME280;65075;48.390;17.598;2024-01-25T08:34:18;100165.69;;;10.24;47.77
76603;BME280;65075;48.390;17.598;2024-01-25T08:36:43;100188.31;;;10.89;46.83
76603;BME280;65075;48.390;17.598;2024-01-25T08:39:08;100178.19;;;10.63;46.20
76603;BME280;65075;48.390;17.598;2024-01-25T08:41:34;100166.06;;;11.03;45.47
76603;BME280;65075;48.390;17.598;2024-01-25T08:44:00;100199.44;;;10.83;46.06
76603;BME280;65075;48.390;17.598;2024-01-25T08:46:26;100199.50;;;10.66;47.18
76603;BME280;65075;48.390;17.598;2024-01-25T08:48:52;100192.84;;;11.06;45.27
76603;BME280;65075;48.390;17.598;2024-01-25T08:51:17;100183.56;;;10.80;46.92
76603;BME280;65075;48.390;17.598;2024-01-25T08:53:43;100208.50;;;10.88;47.18
76603;BME280;65075;48.390;17.598;2024-01-25T08:56:08;100209.66;;;10.93;46.29
76603;BME280;65075;48.390;17.598;2024-01-25T08:58:34;100215.16;;;10.98;47.08
76603;BME280;65075;48.390;17.598;2024-01-25T09:00:59;100209.13;;;10.96;46.64
76603;BME280;65075;48.390;17.598;2024-01-25T09:03:27;100204.25;;;10.76;47.12
76603;BME280;65075;48.390;17.598;2024-01-25T09:05:52;100219.31;;;10.57;47.73
76603;BME280;65075;48.390;17.598;2024-01-25T09:08:18;100177.75;;;10.50;46.82
76603;BME280;65075;48.390;17.598;2024-01-25T09:10:43;100221.00;;;10.84;45.80
76603;BME280;65075;48.390;17.598;2024-01-25T09:13:09;100205.84;;;10.50;47.52
76603;BME280;65075;48.390;17.598;2024-01-25T09:15:37;100245.56;;;10.84;47.72
76603;BME280;65075;48.390;17.598;2024-01-25T09:18:03;100224.19;;;10.76;47.70
76603;BME280;65075;48.390;17.598;2024-01-25T09:20:31;100237.41;;;11.33;46.63
76603;BME280;65075;48.390;17.598;2024-01-25T09:22:58;100241.91;;;10.96;47.68
76603;BME280;65075;48.390;17.598;2024-01-25T09:25:25;100250.38;;;11.21;47.06
76603;BME280;65075;48.390;17.598;2024-01-25T09:27:52;100265.66;;;11.22;50.01
76603;BME280;65075;48.390;17.598;2024-01-25T09:30:19;100259.44;;;11.53;48.30
76603;BME280;65075;48.390;17.598;2024-01-25T09:32:47;100262.53;;;11.88;46.79
76603;BME280;65075;48.390;17.598;2024-01-25T09:35:15;100257.41;;;11.38;47.07
76603;BME280;65075;48.390;17.598;2024-01-25T09:37:42;100283.41;;;11.46;46.47
76603;BME280;65075;48.390;17.598;2024-01-25T09:40:09;100281.72;;;11.40;46.08
76603;BME280;65075;48.390;17.598;2024-01-25T09:42:37;100269.72;;;10.93;46.91
76603;BME280;65075;48.390;17.598;2024-01-25T09:45:06;100283.94;;;10.56;47.75
76603;BME280;65075;48.390;17.598;2024-01-25T09:47:33;100271.63;;;10.92;47.45
76603;BME280;65075;48.390;17.598;2024-01-25T09:50:00;100247.91;;;10.98;46.64
76603;BME280;65075;48.390;17.598;2024-01-25T09:52:29;100262.59;;;10.91;46.26
76603;BME280;65075;48.390;17.598;2024-01-25T09:54:57;100273.31;;;10.76;46.49
76603;BME280;65075;48.390;17.598;2024-01-25T09:57:27;100283.84;;;11.11;46.45
76603;BME280;65075;48.390;17.598;2024-01-25T09:59:54;100287.31;;;11.28;45.42
76603;BME280;65075;48.390;17.598;2024-01-25T10:02:20;100283.72;;;10.79;45.82
76603;BME280;65075;48.390;17.598;2024-01-25T10:04:52;100277.63;;;10.34;46.78
76603;BME280;65075;48.390;17.598;2024-01-25T10:07:40;100288.69;;;10.82;46.47
76603;BME280;65075;48.390;17.598;2024-01-25T10:10:09;100300.59;;;10.55;46.20
76603;BME280;65075;48.390;17.598;2024-01-25T10:12:37;100310.53;;;11.04;45.31
76603;BME280;65075;48.390;17.598;2024-01-25T10:15:05;100312.94;;;11.22;44.46
76603;BME280;65075;48.390;17.598;2024-01-25T10:17:31;100294.00;;;11.64;44.72
76603;BME280;65075;48.390;17.598;2024-01-25T10:19:57;100309.72;;;11.52;44.82
76603;BME280;65075;48.390;17.598;2024-01-25T10:22:25;100295.28;;;11.08;45.31
76603;BME280;65075;48.390;17.598;2024-01-25T10:24:52;100304.91;;;11.37;45.20
76603;BME280;65075;48.390;17.598;2024-01-25T10:27:21;100292.00;;;10.46;45.83
76603;BME280;65075;48.390;17.598;2024-01-25T10:29:49;100318.47;;;11.54;43.97
76603;BME280;65075;48.390;17.598;2024-01-25T10:32:18;100308.25;;;11.18;44.31
76603;BME280;65075;48.390;17.598;2024-01-25T10:34:45;100287.81;;;10.99;44.85
76603;BME280;65075;48.390;17.598;2024-01-25T10:37:14;100306.56;;;11.38;43.34
76603;BME280;65075;48.390;17.598;2024-01-25T10:39:41;100312.84;;;11.39;43.56
76603;BME280;65075;48.390;17.598;2024-01-25T10:42:09;100305.63;;;11.28;43.50
76603;BME280;65075;48.390;17.598;2024-01-25T10:44:35;100303.94;;;11.00;44.14
76603;BME280;65075;48.390;17.598;2024-01-25T10:47:03;100317.69;;;10.88;44.96
76603;BME280;65075;48.390;17.598;2024-01-25T10:49:30;100314.81;;;11.43;44.47
76603;BME280;65075;48.390;17.598;2024-01-25T10:51:59;100286.34;;;10.69;44.68
76603;BME280;65075;48.390;17.598;2024-01-25T10:54:26;100297.94;;;11.25;43.17
76603;BME280;65075;48.390;17.598;2024-01-25T10:56:53;100307.16;;;11.19;43.83
76603;BME280;65075;48.390;17.598;2024-01-25T10:59:20;100322.22;;;11.48;44.03
76603;BME280;65075;48.390;17.598;2024-01-25T11:01:47;100310.22;;;11.01;44.18
76603;BME280;65075;48.390;17.598;2024-01-25T11:04:21;100330.84;;;11.35;43.85
76603;BME280;65075;48.390;17.598;2024-01-25T11:06:48;100316.28;;;10.64;45.41
76603;BME280;65075;48.390;17.598;2024-01-25T11:09:17;100329.56;;;11.42;43.22
76603;BME280;65075;48.390;17.598;2024-01-25T11:11:49;100336.50;;;12.03;43.27
76603;BME280;65075;48.390;17.598;2024-01-25T11:14:16;100332.56;;;11.68;43.72
76603;BME280;65075;48.390;17.598;2024-01-25T11:16:44;100326.84;;;11.21;43.98
76603;BME280;65075;48.390;17.598;2024-01-25T11:19:18;100300.81;;;10.91;43.70
76603;BME280;65075;48.390;17.598;2024-01-25T11:21:46;100329.69;;;10.87;45.43
76603;BME280;65075;48.390;17.598;2024-01-25T11:24:20;100326.09;;;11.04;44.90
76603;BME280;65075;48.390;17.598;2024-01-25T11:26:47;100305.00;;;10.99;44.47
76603;BME280;65075;48.390;17.598;2024-01-25T11:29:14;100332.47;;;10.71;45.38
76603;BME280;65075;48.390;17.598;2024-01-25T11:31:46;100325.25;;;11.46;43.49
76603;BME280;65075;48.390;17.598;2024-01-25T11:34:13;100331.00;;;11.98;42.81
76603;BME280;65075;48.390;17.598;2024-01-25T11:36:40;100353.16;;;11.27;43.61
76603;BME280;65075;48.390;17.598;2024-01-25T11:39:09;100323.88;;;10.62;45.22
76603;BME280;65075;48.390;17.598;2024-01-25T11:41:35;100323.81;;;10.96;44.12
76603;BME280;65075;48.390;17.598;2024-01-25T11:44:02;100341.66;;;11.73;42.81
76603;BME280;65075;48.390;17.598;2024-01-25T11:46:30;100326.91;;;12.01;42.67
76603;BME280;65075;48.390;17.598;2024-01-25T11:48:57;100330.06;;;11.39;43.09
76603;BME280;65075;48.390;17.598;2024-01-25T11:51:23;100317.44;;;11.12;43.60
76603;BME280;65075;48.390;17.598;2024-01-25T11:53:48;100317.63;;;11.05;43.26
76603;BME280;65075;48.390;17.598;2024-01-25T11:56:28;100350.47;;;11.32;44.02
76603;BME280;65075;48.390;17.598;2024-01-25T11:58:55;100337.38;;;11.34;43.05
76603;BME280;65075;48.390;17.598;2024-01-25T12:01:24;100336.63;;;11.17;43.68
76603;BME280;65075;48.390;17.598;2024-01-25T12:03:50;100329.31;;;11.22;43.57
76603;BME280;65075;48.390;17.598;2024-01-25T12:06:17;100322.34;;;11.58;43.06
76603;BME280;65075;48.390;17.598;2024-01-25T12:08:44;100311.72;;;11.35;43.43
76603;BME280;65075;48.390;17.598;2024-01-25T12:11:11;100305.31;;;11.51;42.84
76603;BME280;65075;48.390;17.598;2024-01-25T12:13:42;100329.06;;;11.24;43.56
76603;BME280;65075;48.390;17.598;2024-01-25T12:16:12;100311.28;;;11.21;42.79
76603;BME280;65075;48.390;17.598;2024-01-25T12:18:39;100319.22;;;11.23;43.21
76603;BME280;65075;48.390;17.598;2024-01-25T12:21:05;100293.66;;;11.07;43.89
76603;BME280;65075;48.390;17.598;2024-01-25T12:23:39;100301.06;;;11.60;43.21
76603;BME280;65075;48.390;17.598;2024-01-25T12:26:09;100300.34;;;12.01;43.02
76603;BME280;65075;48.390;17.598;2024-01-25T12:28:36;100292.88;;;11.87;42.70
76603;BME280;65075;48.390;17.598;2024-01-25T12:31:04;100302.41;;;11.58;43.06
76603;BME280;65075;48.390;17.598;2024-01-25T12:33:30;100302.69;;;11.88;42.31
76603;BME280;65075;48.390;17.598;2024-01-25T12:36:15;100302.41;;;11.36;43.88